sensor_id;sensor_type;location;lat;lon;timestamp;P1;durP1;ratioP1;P2;durP2;ratioP2
22111;SDS011;11222;50.872;4.312;2023-06-19T00:01:43;7.20;;;4.88;;
22111;SDS011;11222;50.872;4.312;2023-06-19T00:04:09;8.93;;;5.78;;
22111;SDS011;11222;50.872;4.312;2023-06-19T00:06:35;7.30;;;5.95;;
22111;SDS011;11222;50.872;4.312;2023-06-19T00:09:01;8.00;;;5.82;;
22111;SDS011;11222;50.872;4.312;2023-06-19T00:11:27;9.85;;;5.43;;
22111;SDS011;11222;50.872;4.312;2023-06-19T00:13:54;6.75;;;5.30;;
22111;SDS011;11222;50.872;4.312;2023-06-19T00:16:20;9.02;;;5.65;;
22111;SDS011;11222;50.872;4.312;2023-06-19T00:18:46;9.93;;;5.07;;
22111;SDS011;11222;50.872;4.312;2023-06-19T00:21:11;6.55;;;5.25;;
22111;SDS011;11222;50.872;4.312;2023-06-19T00:23:37;8.02;;;4.97;;
22111;SDS011;11222;50.872;4.312;2023-06-19T00:26:03;8.13;;;5.05;;
22111;SDS011;11222;50.872;4.312;2023-06-19T00:28:29;6.88;;;4.50;;
22111;SDS011;11222;50.872;4.312;2023-06-19T00:30:56;6.95;;;4.93;;
22111;SDS011;11222;50.872;4.312;2023-06-19T00:33:21;10.05;;;5.38;;
22111;SDS011;11222;50.872;4.312;2023-06-19T00:35:49;6.60;;;5.10;;
22111;SDS011;11222;50.872;4.312;2023-06-19T00:38:15;5.25;;;4.75;;
22111;SDS011;11222;50.872;4.312;2023-06-19T00:40:41;6.18;;;4.63;;
22111;SDS011;11222;50.872;4.312;2023-06-19T00:43:06;6.53;;;4.78;;
22111;SDS011;11222;50.872;4.312;2023-06-19T00:45:32;7.68;;;4.57;;
22111;SDS011;11222;50.872;4.312;2023-06-19T00:47:58;5.78;;;4.70;;
22111;SDS011;11222;50.872;4.312;2023-06-19T00:50:25;8.48;;;5.05;;
22111;SDS011;11222;50.872;4.312;2023-06-19T00:52:52;9.75;;;4.88;;
22111;SDS011;11222;50.872;4.312;2023-06-19T00:55:18;6.32;;;5.10;;
22111;SDS011;11222;50.872;4.312;2023-06-19T00:57:44;5.38;;;4.85;;
22111;SDS011;11222;50.872;4.312;2023-06-19T01:00:10;8.82;;;5.40;;
22111;SDS011;11222;50.872;4.312;2023-06-19T01:02:37;9.13;;;5.40;;
22111;SDS011;11222;50.872;4.312;2023-06-19T01:05:04;7.13;;;5.40;;
22111;SDS011;11222;50.872;4.312;2023-06-19T01:10:43;8.32;;;5.30;;
22111;SDS011;11222;50.872;4.312;2023-06-19T01:13:23;8.05;;;5.43;;
22111;SDS011;11222;50.872;4.312;2023-06-19T01:15:59;6.50;;;5.13;;
22111;SDS011;11222;50.872;4.312;2023-06-19T01:18:28;8.55;;;5.47;;
22111;SDS011;11222;50.872;4.312;2023-06-19T01:20:55;5.78;;;5.18;;
22111;SDS011;11222;50.872;4.312;2023-06-19T01:23:21;7.38;;;5.78;;
22111;SDS011;11222;50.872;4.312;2023-06-19T01:25:47;9.18;;;5.50;;
22111;SDS011;11222;50.872;4.312;2023-06-19T01:28:12;9.75;;;5.60;;
22111;SDS011;11222;50.872;4.312;2023-06-19T01:30:39;7.60;;;5.70;;
22111;SDS011;11222;50.872;4.312;2023-06-19T01:33:17;7.40;;;5.80;;
22111;SDS011;11222;50.872;4.312;2023-06-19T01:35:47;7.88;;;6.07;;
22111;SDS011;11222;50.872;4.312;2023-06-19T01:38:14;8.73;;;5.55;;
22111;SDS011;11222;50.872;4.312;2023-06-19T01:40:42;8.77;;;5.90;;
22111;SDS011;11222;50.872;4.312;2023-06-19T01:43:08;8.90;;;5.70;;
22111;SDS011;11222;50.872;4.312;2023-06-19T01:45:35;8.30;;;5.93;;
22111;SDS011;11222;50.872;4.312;2023-06-19T01:48:00;7.22;;;5.53;;
22111;SDS011;11222;50.872;4.312;2023-06-19T01:50:26;7.90;;;6.28;;
22111;SDS011;11222;50.872;4.312;2023-06-19T01:52:52;11.45;;;6.10;;
22111;SDS011;11222;50.872;4.312;2023-06-19T01:55:18;10.15;;;6.68;;
22111;SDS011;11222;50.872;4.312;2023-06-19T01:57:44;9.98;;;5.95;;
22111;SDS011;11222;50.872;4.312;2023-06-19T02:00:11;9.52;;;6.50;;
22111;SDS011;11222;50.872;4.312;2023-06-19T02:02:37;11.32;;;6.47;;
22111;SDS011;11222;50.872;4.312;2023-06-19T02:05:03;9.32;;;6.53;;
22111;SDS011;11222;50.872;4.312;2023-06-19T02:07:29;9.45;;;6.65;;
22111;SDS011;11222;50.872;4.312;2023-06-19T02:09:56;8.82;;;6.22;;
22111;SDS011;11222;50.872;4.312;2023-06-19T02:12:22;9.35;;;6.65;;
22111;SDS011;11222;50.872;4.312;2023-06-19T02:14:47;8.15;;;6.57;;
22111;SDS011;11222;50.872;4.312;2023-06-19T02:17:13;10.05;;;7.10;;
22111;SDS011;11222;50.872;4.312;2023-06-19T02:19:39;7.40;;;6.65;;
22111;SDS011;11222;50.872;4.312;2023-06-19T02:22:05;9.50;;;6.93;;
22111;SDS011;11222;50.872;4.312;2023-06-19T02:24:31;12.57;;;7.40;;
22111;SDS011;11222;50.872;4.312;2023-06-19T02:26:57;9.50;;;7.30;;
22111;SDS011;11222;50.872;4.312;2023-06-19T02:29:23;12.30;;;7.13;;
22111;SDS011;11222;50.872;4.312;2023-06-19T02:31:50;11.27;;;7.30;;
22111;SDS011;11222;50.872;4.312;2023-06-19T02:34:15;9.05;;;7.75;;
22111;SDS011;11222;50.872;4.312;2023-06-19T02:36:41;9.43;;;6.93;;
22111;SDS011;11222;50.872;4.312;2023-06-19T02:39:08;10.70;;;7.30;;
22111;SDS011;11222;50.872;4.312;2023-06-19T02:41:34;9.40;;;7.40;;
22111;SDS011;11222;50.872;4.312;2023-06-19T02:44:00;8.05;;;7.22;;
22111;SDS011;11222;50.872;4.312;2023-06-19T02:46:25;11.65;;;7.35;;
22111;SDS011;11222;50.872;4.312;2023-06-19T02:48:51;15.73;;;7.72;;
22111;SDS011;11222;50.872;4.312;2023-06-19T02:51:17;11.02;;;8.13;;
22111;SDS011;11222;50.872;4.312;2023-06-19T02:53:42;11.00;;;7.50;;
22111;SDS011;11222;50.872;4.312;2023-06-19T02:56:09;13.27;;;7.40;;
22111;SDS011;11222;50.872;4.312;2023-06-19T02:58:36;12.07;;;7.93;;
22111;SDS011;11222;50.872;4.312;2023-06-19T03:01:02;9.40;;;7.88;;
22111;SDS011;11222;50.872;4.312;2023-06-19T03:03:31;11.52;;;8.48;;
22111;SDS011;11222;50.872;4.312;2023-06-19T03:06:02;9.75;;;8.75;;
22111;SDS011;11222;50.872;4.312;2023-06-19T03:08:32;10.38;;;8.60;;
22111;SDS011;11222;50.872;4.312;2023-06-19T03:10:58;13.05;;;9.30;;
22111;SDS011;11222;50.872;4.312;2023-06-19T03:13:24;13.68;;;10.00;;
22111;SDS011;11222;50.872;4.312;2023-06-19T03:15:50;13.80;;;9.82;;
22111;SDS011;11222;50.872;4.312;2023-06-19T03:18:15;12.23;;;9.85;;
22111;SDS011;11222;50.872;4.312;2023-06-19T03:20:41;13.52;;;9.40;;
22111;SDS011;11222;50.872;4.312;2023-06-19T03:23:07;13.90;;;9.68;;
22111;SDS011;11222;50.872;4.312;2023-06-19T03:25:32;12.52;;;8.05;;
22111;SDS011;11222;50.872;4.312;2023-06-19T03:28:03;10.00;;;8.27;;
22111;SDS011;11222;50.872;4.312;2023-06-19T03:30:29;11.63;;;7.97;;
22111;SDS011;11222;50.872;4.312;2023-06-19T03:32:55;11.50;;;8.25;;
22111;SDS011;11222;50.872;4.312;2023-06-19T03:35:20;13.43;;;8.30;;
22111;SDS011;11222;50.872;4.312;2023-06-19T03:37:46;12.10;;;8.38;;
22111;SDS011;11222;50.872;4.312;2023-06-19T03:40:12;8.65;;;7.63;;
22111;SDS011;11222;50.872;4.312;2023-06-19T03:42:39;9.32;;;7.13;;
22111;SDS011;11222;50.872;4.312;2023-06-19T03:45:05;8.82;;;7.65;;
22111;SDS011;11222;50.872;4.312;2023-06-19T03:47:31;11.20;;;8.05;;
22111;SDS011;11222;50.872;4.312;2023-06-19T03:49:57;12.15;;;8.95;;
22111;SDS011;11222;50.872;4.312;2023-06-19T03:52:23;11.75;;;8.55;;
22111;SDS011;11222;50.872;4.312;2023-06-19T03:54:48;10.18;;;7.93;;
22111;SDS011;11222;50.872;4.312;2023-06-19T03:57:14;12.00;;;8.13;;
22111;SDS011;11222;50.872;4.312;2023-06-19T03:59:40;9.23;;;8.18;;
22111;SDS011;11222;50.872;4.312;2023-06-19T04:02:06;9.23;;;7.88;;
22111;SDS011;11222;50.872;4.312;2023-06-19T04:04:31;9.27;;;7.80;;
22111;SDS011;11222;50.872;4.312;2023-06-19T04:06:57;8.85;;;7.65;;
22111;SDS011;11222;50.872;4.312;2023-06-19T04:09:24;12.25;;;8.27;;
22111;SDS011;11222;50.872;4.312;2023-06-19T04:11:50;10.50;;;8.27;;
22111;SDS011;11222;50.872;4.312;2023-06-19T04:14:15;11.00;;;8.30;;
22111;SDS011;11222;50.872;4.312;2023-06-19T04:16:41;9.48;;;7.90;;
22111;SDS011;11222;50.872;4.312;2023-06-19T04:19:07;11.25;;;8.00;;
22111;SDS011;11222;50.872;4.312;2023-06-19T04:21:32;10.45;;;7.90;;
22111;SDS011;11222;50.872;4.312;2023-06-19T04:23:58;11.07;;;8.23;;
22111;SDS011;11222;50.872;4.312;2023-06-19T04:26:24;8.80;;;7.90;;
22111;SDS011;11222;50.872;4.312;2023-06-19T04:28:50;10.90;;;8.75;;
22111;SDS011;11222;50.872;4.312;2023-06-19T04:31:15;10.82;;;8.80;;
22111;SDS011;11222;50.872;4.312;2023-06-19T04:33:44;10.82;;;7.88;;
22111;SDS011;11222;50.872;4.312;2023-06-19T04:36:10;10.43;;;8.15;;
22111;SDS011;11222;50.872;4.312;2023-06-19T04:38:36;10.18;;;8.48;;
22111;SDS011;11222;50.872;4.312;2023-06-19T04:41:01;10.15;;;8.80;;
22111;SDS011;11222;50.872;4.312;2023-06-19T04:43:27;9.80;;;8.75;;
22111;SDS011;11222;50.872;4.312;2023-06-19T04:45:53;10.27;;;9.00;;
22111;SDS011;11222;50.872;4.312;2023-06-19T04:48:19;11.57;;;9.50;;
22111;SDS011;11222;50.872;4.312;2023-06-19T04:50:44;10.65;;;9.55;;
22111;SDS011;11222;50.872;4.312;2023-06-19T04:53:10;11.30;;;9.85;;
22111;SDS011;11222;50.872;4.312;2023-06-19T04:55:36;13.38;;;9.60;;
22111;SDS011;11222;50.872;4.312;2023-06-19T04:58:02;12.75;;;9.77;;
22111;SDS011;11222;50.872;4.312;2023-06-19T05:00:28;14.32;;;10.07;;
22111;SDS011;11222;50.872;4.312;2023-06-19T05:02:54;15.57;;;11.00;;
22111;SDS011;11222;50.872;4.312;2023-06-19T05:05:24;20.58;;;11.23;;
22111;SDS011;11222;50.872;4.312;2023-06-19T05:07:51;14.48;;;11.27;;
22111;SDS011;11222;50.872;4.312;2023-06-19T05:10:17;14.15;;;11.65;;
22111;SDS011;11222;50.872;4.312;2023-06-19T05:12:44;17.48;;;12.25;;
22111;SDS011;11222;50.872;4.312;2023-06-19T05:15:09;17.35;;;13.45;;
22111;SDS011;11222;50.872;4.312;2023-06-19T05:17:36;16.48;;;13.30;;
22111;SDS011;11222;50.872;4.312;2023-06-19T05:20:03;18.10;;;14.90;;
22111;SDS011;11222;50.872;4.312;2023-06-19T05:22:32;19.83;;;14.77;;
22111;SDS011;11222;50.872;4.312;2023-06-19T05:24:59;19.60;;;14.65;;
22111;SDS011;11222;50.872;4.312;2023-06-19T05:27:25;17.40;;;14.18;;
22111;SDS011;11222;50.872;4.312;2023-06-19T05:29:51;19.85;;;15.35;;
22111;SDS011;11222;50.872;4.312;2023-06-19T05:32:18;20.00;;;14.30;;
22111;SDS011;11222;50.872;4.312;2023-06-19T05:34:44;21.67;;;15.57;;
22111;SDS011;11222;50.872;4.312;2023-06-19T05:37:09;21.63;;;15.20;;
22111;SDS011;11222;50.872;4.312;2023-06-19T05:39:35;19.65;;;14.95;;
22111;SDS011;11222;50.872;4.312;2023-06-19T05:42:01;20.15;;;15.55;;
22111;SDS011;11222;50.872;4.312;2023-06-19T05:44:27;20.20;;;16.00;;
22111;SDS011;11222;50.872;4.312;2023-06-19T05:46:52;17.40;;;14.55;;
22111;SDS011;11222;50.872;4.312;2023-06-19T05:49:18;22.92;;;16.05;;
22111;SDS011;11222;50.872;4.312;2023-06-19T05:51:44;18.45;;;16.48;;
22111;SDS011;11222;50.872;4.312;2023-06-19T05:54:09;22.52;;;17.80;;
22111;SDS011;11222;50.872;4.312;2023-06-19T05:56:35;24.20;;;17.95;;
22111;SDS011;11222;50.872;4.312;2023-06-19T05:59:01;25.48;;;18.05;;
22111;SDS011;11222;50.872;4.312;2023-06-19T06:01:28;21.58;;;18.85;;
22111;SDS011;11222;50.872;4.312;2023-06-19T06:03:54;20.13;;;17.70;;
22111;SDS011;11222;50.872;4.312;2023-06-19T06:06:20;25.98;;;19.25;;
22111;SDS011;11222;50.872;4.312;2023-06-19T06:08:47;25.35;;;19.20;;
22111;SDS011;11222;50.872;4.312;2023-06-19T06:11:13;26.85;;;19.58;;
22111;SDS011;11222;50.872;4.312;2023-06-19T06:13:38;21.73;;;18.73;;
22111;SDS011;11222;50.872;4.312;2023-06-19T06:16:04;26.73;;;19.58;;
22111;SDS011;11222;50.872;4.312;2023-06-19T06:18:29;21.50;;;18.13;;
22111;SDS011;11222;50.872;4.312;2023-06-19T06:20:55;24.15;;;18.33;;
22111;SDS011;11222;50.872;4.312;2023-06-19T06:23:21;23.02;;;18.50;;
22111;SDS011;11222;50.872;4.312;2023-06-19T06:25:47;24.40;;;18.45;;
22111;SDS011;11222;50.872;4.312;2023-06-19T06:28:14;23.15;;;19.08;;
22111;SDS011;11222;50.872;4.312;2023-06-19T06:30:43;27.70;;;18.85;;
22111;SDS011;11222;50.872;4.312;2023-06-19T06:33:09;20.98;;;17.92;;
22111;SDS011;11222;50.872;4.312;2023-06-19T06:35:35;24.20;;;18.75;;
22111;SDS011;11222;50.872;4.312;2023-06-19T06:38:01;20.45;;;17.88;;
22111;SDS011;11222;50.872;4.312;2023-06-19T06:40:27;23.02;;;19.33;;
22111;SDS011;11222;50.872;4.312;2023-06-19T06:42:53;22.73;;;19.23;;
22111;SDS011;11222;50.872;4.312;2023-06-19T06:45:19;22.77;;;19.38;;
22111;SDS011;11222;50.872;4.312;2023-06-19T06:47:44;23.30;;;19.00;;
22111;SDS011;11222;50.872;4.312;2023-06-19T06:50:10;23.55;;;20.55;;
22111;SDS011;11222;50.872;4.312;2023-06-19T06:52:36;25.70;;;20.05;;
22111;SDS011;11222;50.872;4.312;2023-06-19T06:55:02;26.13;;;20.63;;
22111;SDS011;11222;50.872;4.312;2023-06-19T06:57:29;24.58;;;18.35;;
22111;SDS011;11222;50.872;4.312;2023-06-19T06:59:54;20.42;;;17.45;;
22111;SDS011;11222;50.872;4.312;2023-06-19T07:02:20;23.83;;;18.80;;
22111;SDS011;11222;50.872;4.312;2023-06-19T07:04:46;20.67;;;18.48;;
22111;SDS011;11222;50.872;4.312;2023-06-19T07:07:11;25.60;;;21.10;;
22111;SDS011;11222;50.872;4.312;2023-06-19T07:09:37;24.60;;;20.10;;
22111;SDS011;11222;50.872;4.312;2023-06-19T07:12:03;26.58;;;19.83;;
22111;SDS011;11222;50.872;4.312;2023-06-19T07:14:30;24.88;;;20.33;;
22111;SDS011;11222;50.872;4.312;2023-06-19T07:16:55;24.58;;;20.35;;
22111;SDS011;11222;50.872;4.312;2023-06-19T07:19:21;22.80;;;19.35;;
22111;SDS011;11222;50.872;4.312;2023-06-19T07:21:47;23.80;;;20.30;;
22111;SDS011;11222;50.872;4.312;2023-06-19T07:24:15;22.95;;;19.23;;
22111;SDS011;11222;50.872;4.312;2023-06-19T07:26:41;19.83;;;17.67;;
22111;SDS011;11222;50.872;4.312;2023-06-19T07:29:06;28.48;;;19.25;;
22111;SDS011;11222;50.872;4.312;2023-06-19T07:31:32;20.65;;;18.42;;
22111;SDS011;11222;50.872;4.312;2023-06-19T07:33:58;25.40;;;18.98;;
22111;SDS011;11222;50.872;4.312;2023-06-19T07:36:23;22.42;;;17.83;;
22111;SDS011;11222;50.872;4.312;2023-06-19T07:38:49;22.35;;;17.80;;
22111;SDS011;11222;50.872;4.312;2023-06-19T07:41:15;21.50;;;16.85;;
22111;SDS011;11222;50.872;4.312;2023-06-19T07:43:40;21.50;;;16.88;;
22111;SDS011;11222;50.872;4.312;2023-06-19T07:46:06;22.52;;;16.35;;
22111;SDS011;11222;50.872;4.312;2023-06-19T07:48:32;19.98;;;15.90;;
22111;SDS011;11222;50.872;4.312;2023-06-19T07:50:57;20.38;;;16.65;;
22111;SDS011;11222;50.872;4.312;2023-06-19T07:53:23;22.33;;;16.30;;
22111;SDS011;11222;50.872;4.312;2023-06-19T07:55:48;17.65;;;15.65;;
22111;SDS011;11222;50.872;4.312;2023-06-19T07:58:14;17.63;;;15.73;;
22111;SDS011;11222;50.872;4.312;2023-06-19T08:00:40;20.08;;;16.20;;
22111;SDS011;11222;50.872;4.312;2023-06-19T08:03:05;17.38;;;15.40;;
22111;SDS011;11222;50.872;4.312;2023-06-19T08:05:31;18.50;;;14.27;;
22111;SDS011;11222;50.872;4.312;2023-06-19T08:07:58;18.05;;;14.38;;
22111;SDS011;11222;50.872;4.312;2023-06-19T08:10:24;17.63;;;15.50;;
22111;SDS011;11222;50.872;4.312;2023-06-19T08:12:50;15.25;;;13.48;;
22111;SDS011;11222;50.872;4.312;2023-06-19T08:15:16;16.67;;;13.88;;
22111;SDS011;11222;50.872;4.312;2023-06-19T08:17:42;17.50;;;14.95;;
22111;SDS011;11222;50.872;4.312;2023-06-19T08:20:07;17.00;;;13.02;;
22111;SDS011;11222;50.872;4.312;2023-06-19T08:22:34;16.02;;;13.80;;
22111;SDS011;11222;50.872;4.312;2023-06-19T08:25:00;13.98;;;12.40;;
22111;SDS011;11222;50.872;4.312;2023-06-19T08:27:26;16.95;;;12.80;;
22111;SDS011;11222;50.872;4.312;2023-06-19T08:29:51;14.15;;;11.82;;
22111;SDS011;11222;50.872;4.312;2023-06-19T08:32:17;14.80;;;12.20;;
22111;SDS011;11222;50.872;4.312;2023-06-19T08:34:43;13.93;;;11.77;;
22111;SDS011;11222;50.872;4.312;2023-06-19T08:37:09;14.57;;;11.75;;
22111;SDS011;11222;50.872;4.312;2023-06-19T08:39:37;14.65;;;11.88;;
22111;SDS011;11222;50.872;4.312;2023-06-19T08:42:07;13.38;;;12.02;;
22111;SDS011;11222;50.872;4.312;2023-06-19T08:44:34;16.58;;;12.55;;
22111;SDS011;11222;50.872;4.312;2023-06-19T08:47:03;13.45;;;11.80;;
22111;SDS011;11222;50.872;4.312;2023-06-19T08:49:29;14.23;;;12.82;;
22111;SDS011;11222;50.872;4.312;2023-06-19T08:51:56;18.02;;;12.63;;
22111;SDS011;11222;50.872;4.312;2023-06-19T08:54:22;15.25;;;12.38;;
22111;SDS011;11222;50.872;4.312;2023-06-19T08:56:48;15.10;;;11.93;;
22111;SDS011;11222;50.872;4.312;2023-06-19T08:59:14;14.15;;;12.45;;
22111;SDS011;11222;50.872;4.312;2023-06-19T09:01:47;14.02;;;12.45;;
22111;SDS011;11222;50.872;4.312;2023-06-19T09:04:21;16.70;;;13.15;;
22111;SDS011;11222;50.872;4.312;2023-06-19T09:06:49;15.02;;;12.90;;
22111;SDS011;11222;50.872;4.312;2023-06-19T09:09:16;14.80;;;11.90;;
22111;SDS011;11222;50.872;4.312;2023-06-19T09:14:35;12.35;;;10.88;;
22111;SDS011;11222;50.872;4.312;2023-06-19T09:17:05;14.70;;;11.32;;
22111;SDS011;11222;50.872;4.312;2023-06-19T09:19:33;12.98;;;11.57;;
22111;SDS011;11222;50.872;4.312;2023-06-19T09:22:02;14.13;;;11.23;;
22111;SDS011;11222;50.872;4.312;2023-06-19T09:24:36;16.63;;;11.15;;
22111;SDS011;11222;50.872;4.312;2023-06-19T09:27:06;14.20;;;11.10;;
22111;SDS011;11222;50.872;4.312;2023-06-19T09:29:39;15.43;;;10.63;;
22111;SDS011;11222;50.872;4.312;2023-06-19T09:32:19;13.70;;;11.32;;
22111;SDS011;11222;50.872;4.312;2023-06-19T09:34:46;14.60;;;10.68;;
22111;SDS011;11222;50.872;4.312;2023-06-19T09:37:14;13.30;;;10.38;;
22111;SDS011;11222;50.872;4.312;2023-06-19T09:39:40;13.40;;;11.63;;
22111;SDS011;11222;50.872;4.312;2023-06-19T09:42:07;11.77;;;10.50;;
22111;SDS011;11222;50.872;4.312;2023-06-19T09:44:40;15.60;;;10.25;;
22111;SDS011;11222;50.872;4.312;2023-06-19T09:47:19;13.45;;;10.63;;
22111;SDS011;11222;50.872;4.312;2023-06-19T09:49:49;12.07;;;10.77;;
22111;SDS011;11222;50.872;4.312;2023-06-19T09:52:19;13.27;;;10.05;;
22111;SDS011;11222;50.872;4.312;2023-06-19T09:54:47;11.73;;;10.10;;
22111;SDS011;11222;50.872;4.312;2023-06-19T09:57:17;12.32;;;9.93;;
22111;SDS011;11222;50.872;4.312;2023-06-19T09:59:45;16.42;;;10.68;;
22111;SDS011;11222;50.872;4.312;2023-06-19T10:02:19;11.50;;;10.18;;
22111;SDS011;11222;50.872;4.312;2023-06-19T10:04:48;12.38;;;10.57;;
22111;SDS011;11222;50.872;4.312;2023-06-19T10:07:19;12.57;;;10.25;;
22111;SDS011;11222;50.872;4.312;2023-06-19T10:10:00;13.65;;;11.30;;
22111;SDS011;11222;50.872;4.312;2023-06-19T10:12:37;12.63;;;10.50;;
22111;SDS011;11222;50.872;4.312;2023-06-19T10:15:15;11.60;;;10.50;;
22111;SDS011;11222;50.872;4.312;2023-06-19T10:17:43;13.88;;;10.68;;
22111;SDS011;11222;50.872;4.312;2023-06-19T10:22:57;15.45;;;12.30;;
22111;SDS011;11222;50.872;4.312;2023-06-19T10:25:36;16.08;;;11.52;;
22111;SDS011;11222;50.872;4.312;2023-06-19T10:28:03;15.48;;;12.50;;
22111;SDS011;11222;50.872;4.312;2023-06-19T10:30:33;17.38;;;12.20;;
22111;SDS011;11222;50.872;4.312;2023-06-19T10:33:01;14.18;;;12.30;;
22111;SDS011;11222;50.872;4.312;2023-06-19T10:35:36;13.90;;;12.27;;
22111;SDS011;11222;50.872;4.312;2023-06-19T10:38:04;15.47;;;13.87;;
22111;SDS011;11222;50.872;4.312;2023-06-19T10:40:29;16.67;;;13.43;;
22111;SDS011;11222;50.872;4.312;2023-06-19T10:42:55;15.35;;;13.23;;
22111;SDS011;11222;50.872;4.312;2023-06-19T10:45:21;14.30;;;12.02;;
22111;SDS011;11222;50.872;4.312;2023-06-19T10:47:53;15.48;;;12.07;;
22111;SDS011;11222;50.872;4.312;2023-06-19T10:50:19;16.52;;;11.52;;
22111;SDS011;11222;50.872;4.312;2023-06-19T10:52:46;13.57;;;11.57;;
22111;SDS011;11222;50.872;4.312;2023-06-19T10:55:13;14.10;;;11.82;;
22111;SDS011;11222;50.872;4.312;2023-06-19T10:57:45;17.17;;;12.25;;
22111;SDS011;11222;50.872;4.312;2023-06-19T11:00:11;14.43;;;11.45;;
22111;SDS011;11222;50.872;4.312;2023-06-19T11:02:47;14.27;;;11.60;;
22111;SDS011;11222;50.872;4.312;2023-06-19T11:05:12;15.15;;;11.65;;
22111;SDS011;11222;50.872;4.312;2023-06-19T11:07:39;14.80;;;12.60;;
22111;SDS011;11222;50.872;4.312;2023-06-19T11:10:04;15.18;;;11.93;;
22111;SDS011;11222;50.872;4.312;2023-06-19T11:12:31;16.75;;;13.52;;
22111;SDS011;11222;50.872;4.312;2023-06-19T11:14:58;16.73;;;11.95;;
22111;SDS011;11222;50.872;4.312;2023-06-19T11:17:24;17.83;;;11.82;;
22111;SDS011;11222;50.872;4.312;2023-06-19T11:19:50;15.38;;;11.82;;
22111;SDS011;11222;50.872;4.312;2023-06-19T11:22:16;15.93;;;11.60;;
22111;SDS011;11222;50.872;4.312;2023-06-19T11:24:45;16.20;;;12.70;;
22111;SDS011;11222;50.872;4.312;2023-06-19T11:27:18;17.05;;;13.63;;
22111;SDS011;11222;50.872;4.312;2023-06-19T11:29:54;14.02;;;12.18;;
22111;SDS011;11222;50.872;4.312;2023-06-19T11:32:21;14.65;;;11.88;;
22111;SDS011;11222;50.872;4.312;2023-06-19T11:34:49;18.80;;;13.57;;
22111;SDS011;11222;50.872;4.312;2023-06-19T11:37:18;22.27;;;13.57;;
22111;SDS011;11222;50.872;4.312;2023-06-19T11:39:46;17.58;;;13.35;;
22111;SDS011;11222;50.872;4.312;2023-06-19T11:42:12;17.63;;;13.93;;
22111;SDS011;11222;50.872;4.312;2023-06-19T11:47:32;17.10;;;11.85;;
22111;SDS011;11222;50.872;4.312;2023-06-19T11:49:59;12.48;;;10.82;;
22111;SDS011;11222;50.872;4.312;2023-06-19T11:52:25;19.85;;;13.05;;
22111;SDS011;11222;50.872;4.312;2023-06-19T11:54:51;14.40;;;12.02;;
22111;SDS011;11222;50.872;4.312;2023-06-19T11:57:16;14.18;;;10.57;;
22111;SDS011;11222;50.872;4.312;2023-06-19T11:59:42;14.68;;;12.07;;
22111;SDS011;11222;50.872;4.312;2023-06-19T12:02:08;17.35;;;12.05;;
22111;SDS011;11222;50.872;4.312;2023-06-19T12:04:34;17.70;;;12.60;;
22111;SDS011;11222;50.872;4.312;2023-06-19T12:07:00;14.82;;;12.57;;
22111;SDS011;11222;50.872;4.312;2023-06-19T12:09:26;17.52;;;12.10;;
22111;SDS011;11222;50.872;4.312;2023-06-19T12:11:52;17.10;;;12.13;;
22111;SDS011;11222;50.872;4.312;2023-06-19T12:14:18;13.88;;;11.27;;
22111;SDS011;11222;50.872;4.312;2023-06-19T12:16:48;14.65;;;11.15;;
22111;SDS011;11222;50.872;4.312;2023-06-19T12:19:13;18.88;;;11.10;;
22111;SDS011;11222;50.872;4.312;2023-06-19T12:21:39;15.18;;;11.07;;
22111;SDS011;11222;50.872;4.312;2023-06-19T12:24:05;14.50;;;11.15;;
22111;SDS011;11222;50.872;4.312;2023-06-19T12:26:32;13.52;;;10.68;;
22111;SDS011;11222;50.872;4.312;2023-06-19T12:29:01;16.85;;;11.70;;
22111;SDS011;11222;50.872;4.312;2023-06-19T12:31:30;15.63;;;11.90;;
22111;SDS011;11222;50.872;4.312;2023-06-19T12:33:56;16.65;;;12.60;;
22111;SDS011;11222;50.872;4.312;2023-06-19T12:36:22;18.00;;;13.02;;
22111;SDS011;11222;50.872;4.312;2023-06-19T12:38:48;18.50;;;13.55;;
22111;SDS011;11222;50.872;4.312;2023-06-19T12:41:14;13.63;;;10.82;;
22111;SDS011;11222;50.872;4.312;2023-06-19T12:43:40;13.57;;;10.48;;
22111;SDS011;11222;50.872;4.312;2023-06-19T12:46:06;17.15;;;11.07;;
22111;SDS011;11222;50.872;4.312;2023-06-19T12:48:32;15.98;;;11.15;;
22111;SDS011;11222;50.872;4.312;2023-06-19T12:50:58;13.48;;;10.48;;
22111;SDS011;11222;50.872;4.312;2023-06-19T12:53:23;12.93;;;10.30;;
22111;SDS011;11222;50.872;4.312;2023-06-19T12:55:53;13.02;;;10.85;;
22111;SDS011;11222;50.872;4.312;2023-06-19T12:58:19;12.18;;;10.10;;
22111;SDS011;11222;50.872;4.312;2023-06-19T13:00:45;14.45;;;9.88;;
22111;SDS011;11222;50.872;4.312;2023-06-19T13:03:11;14.05;;;10.95;;
22111;SDS011;11222;50.872;4.312;2023-06-19T13:05:36;12.43;;;10.93;;
22111;SDS011;11222;50.872;4.312;2023-06-19T13:08:02;14.93;;;10.95;;
22111;SDS011;11222;50.872;4.312;2023-06-19T13:10:27;12.13;;;10.25;;
22111;SDS011;11222;50.872;4.312;2023-06-19T13:12:53;18.02;;;9.90;;
22111;SDS011;11222;50.872;4.312;2023-06-19T13:15:19;15.85;;;9.40;;
22111;SDS011;11222;50.872;4.312;2023-06-19T13:17:44;14.65;;;9.30;;
22111;SDS011;11222;50.872;4.312;2023-06-19T13:20:10;12.50;;;9.63;;
22111;SDS011;11222;50.872;4.312;2023-06-19T13:22:36;11.75;;;9.48;;
22111;SDS011;11222;50.872;4.312;2023-06-19T13:25:02;11.57;;;10.13;;
22111;SDS011;11222;50.872;4.312;2023-06-19T13:27:29;13.13;;;9.68;;
22111;SDS011;11222;50.872;4.312;2023-06-19T13:29:55;13.10;;;10.25;;
22111;SDS011;11222;50.872;4.312;2023-06-19T13:32:20;13.43;;;10.25;;
22111;SDS011;11222;50.872;4.312;2023-06-19T13:34:46;11.63;;;9.70;;
22111;SDS011;11222;50.872;4.312;2023-06-19T13:37:12;17.33;;;10.10;;
22111;SDS011;11222;50.872;4.312;2023-06-19T13:39:37;12.50;;;9.95;;
22111;SDS011;11222;50.872;4.312;2023-06-19T13:42:04;13.05;;;10.15;;
22111;SDS011;11222;50.872;4.312;2023-06-19T13:44:30;11.52;;;8.60;;
22111;SDS011;11222;50.872;4.312;2023-06-19T13:46:56;11.00;;;9.10;;
22111;SDS011;11222;50.872;4.312;2023-06-19T13:49:22;11.30;;;9.07;;
22111;SDS011;11222;50.872;4.312;2023-06-19T13:51:47;11.43;;;8.88;;
22111;SDS011;11222;50.872;4.312;2023-06-19T13:54:13;9.70;;;8.80;;
22111;SDS011;11222;50.872;4.312;2023-06-19T13:56:39;11.93;;;8.43;;
22111;SDS011;11222;50.872;4.312;2023-06-19T13:59:05;8.88;;;7.95;;
22111;SDS011;11222;50.872;4.312;2023-06-19T14:01:32;9.63;;;7.63;;
22111;SDS011;11222;50.872;4.312;2023-06-19T14:03:57;8.93;;;8.00;;
22111;SDS011;11222;50.872;4.312;2023-06-19T14:06:23;9.05;;;7.88;;
22111;SDS011;11222;50.872;4.312;2023-06-19T14:08:50;14.07;;;8.52;;
22111;SDS011;11222;50.872;4.312;2023-06-19T14:11:16;11.27;;;7.40;;
22111;SDS011;11222;50.872;4.312;2023-06-19T14:13:43;9.88;;;7.38;;
22111;SDS011;11222;50.872;4.312;2023-06-19T14:16:08;9.20;;;7.35;;
22111;SDS011;11222;50.872;4.312;2023-06-19T14:18:34;8.00;;;7.18;;
22111;SDS011;11222;50.872;4.312;2023-06-19T14:21:02;7.35;;;6.60;;
22111;SDS011;11222;50.872;4.312;2023-06-19T14:23:27;7.95;;;7.03;;
22111;SDS011;11222;50.872;4.312;2023-06-19T14:25:53;8.55;;;7.35;;
22111;SDS011;11222;50.872;4.312;2023-06-19T14:28:19;11.18;;;7.78;;
22111;SDS011;11222;50.872;4.312;2023-06-19T14:30:45;11.18;;;7.75;;
22111;SDS011;11222;50.872;4.312;2023-06-19T14:33:22;10.18;;;8.02;;
22111;SDS011;11222;50.872;4.312;2023-06-19T14:35:56;9.23;;;7.50;;
22111;SDS011;11222;50.872;4.312;2023-06-19T14:38:25;9.50;;;8.07;;
22111;SDS011;11222;50.872;4.312;2023-06-19T14:41:02;9.55;;;6.95;;